Terminal Aerodrome Forecast
Issued by NWS

Home | Current Version | Previous Version | Text Only | Print | Product List | Glossary Off
Versions: 1 2 3 4 5 6 7 8 9 10 11 12 13 14

000
FTUS43 KMPX 291739
TAFAXN
TAF
KAXN 291739Z 2918/3018 32028G38KT P6SM BKN018
     FM292000 31025G33KT P6SM SCT025 SCT100
     FM300000 29013KT P6SM SKC
     FM300300 25005KT P6SM SKC
     FM300600 22004KT P6SM SKC
     FM301200 21008KT P6SM SCT250=

USA.gov is the U.S. government's official web portal to all federal, state and local government web resources and services.